Pajares, Asturias

latitud = 42° 58' 37''N | longitud = 005° 46' 41''W
1460 metros sobre el nivel del mar | datos mensuales

Fecha, hora, temperatura, viento dirección y velocidad, humedad y presión.

  • 25-09-2017 00:00:00 | 10.70°C | Calma |0.00 km/h | 82.00% | 0.00 hPa
  • 24-09-2017 23:00:00 | 10.60°C | Sur |17.00 km/h | 78.00% | 0.00 hPa
  • 24-09-2017 22:00:00 | 9.40°C | Noroeste |8.00 km/h | 91.00% | 0.00 hPa
  • 24-09-2017 21:00:00 | 11.50°C | Noroeste |3.00 km/h | 84.00% | 0.00 hPa
  • 24-09-2017 20:00:00 | 13.40°C | Norte |3.00 km/h | 67.00% | 0.00 hPa
  • 24-09-2017 19:00:00 | 14.40°C | Calma |0.00 km/h | 70.00% | 0.00 hPa
  • 24-09-2017 18:00:00 | 15.50°C | Noroeste |3.00 km/h | 66.00% | 0.00 hPa
  • 24-09-2017 17:00:00 | 19.00°C | Sur |14.00 km/h | 27.00% | 0.00 hPa
  • 24-09-2017 16:00:00 | 19.70°C | Sudeste |7.00 km/h | 26.00% | 0.00 hPa
  • 24-09-2017 15:00:00 | 18.80°C | Sur |12.00 km/h | 28.00% | 0.00 hPa
  • 24-09-2017 14:00:00 | 18.80°C | Sur |11.00 km/h | 31.00% | 0.00 hPa
  • 24-09-2017 13:00:00 | 17.40°C | Sudeste |14.00 km/h | 37.00% | 0.00 hPa
  • 24-09-2017 12:00:00 | 15.60°C | Sur |22.00 km/h | 41.00% | 0.00 hPa
  • 24-09-2017 11:00:00 | 14.60°C | Sudeste |15.00 km/h | 43.00% | 0.00 hPa
  • 24-09-2017 10:00:00 | 13.50°C | Sudeste |21.00 km/h | 44.00% | 0.00 hPa
  • 24-09-2017 09:00:00 | 12.60°C | Sudeste |26.00 km/h | 45.00% | 0.00 hPa
  • 24-09-2017 08:00:00 | 11.80°C | Sur |14.00 km/h | 45.00% | 0.00 hPa
  • 24-09-2017 07:00:00 | 12.60°C | Sudeste |9.00 km/h | 42.00% | 0.00 hPa
  • 24-09-2017 06:00:00 | 12.70°C | Sudeste |8.00 km/h | 39.00% | 0.00 hPa
  • 24-09-2017 05:00:00 | 13.10°C | Sur |14.00 km/h | 41.00% | 0.00 hPa
  • 24-09-2017 04:00:00 | 13.30°C | Sudeste |14.00 km/h | 45.00% | 0.00 hPa
  • 24-09-2017 03:00:00 | 12.10°C | Sur |10.00 km/h | 55.00% | 0.00 hPa
  • 24-09-2017 02:00:00 | 11.30°C | Sur |11.00 km/h | 59.00% | 0.00 hPa
  • 24-09-2017 01:00:00 | 11.50°C | Sudoeste |11.00 km/h | 63.00% | 0.00 hPa